createdAt,value
2023-10-20T00:00:39.315Z,16.08
2023-10-20T00:03:27.754Z,16.09
2023-10-20T00:05:57.761Z,16.07
2023-10-20T00:08:26.222Z,16.06
2023-10-20T00:10:58.605Z,16.12
2023-10-20T00:13:27.119Z,16.15
2023-10-20T00:15:55.635Z,16.15
2023-10-20T00:18:24.621Z,16.14
2023-10-20T00:20:52.975Z,16.13
2023-10-20T00:23:21.490Z,16.13
2023-10-20T00:25:49.823Z,16.13
2023-10-20T00:28:18.934Z,16.11
2023-10-20T00:30:47.416Z,16.10
2023-10-20T00:33:17.345Z,16.10
2023-10-20T00:35:45.607Z,16.09
2023-10-20T00:38:13.994Z,16.10
2023-10-20T00:40:50.137Z,16.08
2023-10-20T00:43:19.030Z,16.05
2023-10-20T00:45:48.286Z,16.04
2023-10-20T00:48:16.950Z,16.01
2023-10-20T00:50:47.141Z,16.03
2023-10-20T00:53:16.188Z,16.01
2023-10-20T00:55:45.641Z,15.98
2023-10-20T00:58:14.120Z,15.96
2023-10-20T01:00:43.963Z,15.93
2023-10-20T01:03:12.636Z,15.93
2023-10-20T01:05:43.190Z,15.88
2023-10-20T01:08:11.669Z,15.85
2023-10-20T01:10:40.518Z,15.83
2023-10-20T01:13:09.608Z,15.81
2023-10-20T01:15:41.218Z,15.82
2023-10-20T01:18:10.973Z,15.83
2023-10-20T01:20:40.641Z,15.77
2023-10-20T01:23:08.918Z,15.71
2023-10-20T01:25:37.543Z,15.68
2023-10-20T01:28:06.338Z,15.67
2023-10-20T01:30:34.734Z,15.68
2023-10-20T01:33:03.065Z,15.72
2023-10-20T01:35:31.423Z,15.71
2023-10-20T01:37:59.975Z,15.69
2023-10-20T01:40:28.755Z,15.66
2023-10-20T01:42:57.329Z,15.66
2023-10-20T01:45:26.321Z,15.66
2023-10-20T01:47:54.767Z,15.63
2023-10-20T01:50:25.802Z,15.62
2023-10-20T01:52:55.783Z,15.62
2023-10-20T01:55:24.671Z,15.63
2023-10-20T01:57:53.130Z,15.63
2023-10-20T02:00:21.504Z,15.58
2023-10-20T02:02:50.081Z,15.52
2023-10-20T02:05:18.894Z,15.46
2023-10-20T02:07:47.356Z,15.42
2023-10-20T02:10:16.457Z,15.42
2023-10-20T02:12:44.855Z,15.41
2023-10-20T02:15:13.852Z,15.38
2023-10-20T02:17:41.982Z,15.37
2023-10-20T02:20:11.002Z,15.34
2023-10-20T02:22:39.475Z,15.32
2023-10-20T02:25:10.205Z,15.32
2023-10-20T02:27:40.932Z,15.24
2023-10-20T02:30:13.732Z,15.15
2023-10-20T02:32:42.989Z,15.05
2023-10-20T02:35:12.500Z,14.99
2023-10-20T02:37:40.923Z,14.94
2023-10-20T02:40:11.916Z,14.84
2023-10-20T02:42:40.453Z,14.75
2023-10-20T02:45:12.466Z,14.67
2023-10-20T02:47:41.050Z,14.61
2023-10-20T02:50:10.512Z,14.58
2023-10-20T02:52:39.061Z,14.53
2023-10-20T02:55:07.957Z,14.45
2023-10-20T02:57:37.775Z,14.38
2023-10-20T03:00:16.359Z,14.32
2023-10-20T03:02:45.477Z,14.28
2023-10-20T03:05:14.001Z,14.25
2023-10-20T03:07:43.597Z,14.19
2023-10-20T03:10:11.845Z,14.10
2023-10-20T03:12:41.150Z,14.03
2023-10-20T03:15:12.528Z,13.97
2023-10-20T03:17:40.969Z,13.96
2023-10-20T03:20:10.516Z,13.92
2023-10-20T03:22:40.702Z,13.86
2023-10-20T03:25:11.500Z,13.82
2023-10-20T03:27:40.638Z,13.78
2023-10-20T03:30:09.830Z,13.79
2023-10-20T03:32:38.472Z,13.78
2023-10-20T03:35:08.441Z,13.72
2023-10-20T03:37:37.011Z,13.64
2023-10-20T03:40:14.790Z,13.58
2023-10-20T03:42:46.195Z,13.51
2023-10-20T03:45:15.827Z,13.50
2023-10-20T03:47:45.676Z,13.49
2023-10-20T03:50:17.464Z,13.47
2023-10-20T03:52:49.983Z,13.44
2023-10-20T03:55:19.117Z,13.42
2023-10-20T03:57:48.825Z,13.40
2023-10-20T04:00:22.803Z,13.42
2023-10-20T04:02:53.545Z,13.41
2023-10-20T04:05:23.034Z,13.40
2023-10-20T04:07:51.965Z,13.41
2023-10-20T04:10:21.113Z,13.46
2023-10-20T04:12:50.183Z,13.49
2023-10-20T04:15:21.103Z,13.48
2023-10-20T04:17:53.829Z,13.46
2023-10-20T04:20:24.904Z,13.45
2023-10-20T04:22:55.029Z,13.47
2023-10-20T04:25:24.304Z,13.46
2023-10-20T04:27:59.649Z,13.43
2023-10-20T04:30:47.042Z,13.40
2023-10-20T04:33:34.341Z,13.37
2023-10-20T04:36:21.348Z,13.33
2023-10-20T04:39:08.246Z,13.32
2023-10-20T04:41:56.385Z,13.36
2023-10-20T04:44:25.198Z,13.36
2023-10-20T04:47:13.150Z,13.34
2023-10-20T04:50:16.435Z,13.33
2023-10-20T04:52:57.167Z,13.41
2023-10-20T04:55:28.985Z,13.50
2023-10-20T04:58:15.520Z,13.54
2023-10-20T05:00:43.905Z,13.53
2023-10-20T05:03:32.245Z,13.56
2023-10-20T05:06:22.031Z,13.61
2023-10-20T05:08:51.334Z,13.70
2023-10-20T05:11:21.360Z,13.80
2023-10-20T05:13:50.275Z,13.85
2023-10-20T05:16:18.870Z,13.91
2023-10-20T05:18:47.608Z,13.99
2023-10-20T05:21:16.492Z,14.07
2023-10-20T05:23:45.608Z,14.20
2023-10-20T05:26:15.243Z,14.34
2023-10-20T05:28:45.215Z,14.43
2023-10-20T05:31:14.423Z,14.50
2023-10-20T05:33:46.887Z,14.59
2023-10-20T05:36:15.092Z,14.79
2023-10-20T05:38:43.794Z,15.12
2023-10-20T05:41:15.521Z,15.45
2023-10-20T05:43:44.045Z,15.81
2023-10-20T05:46:19.638Z,16.13
2023-10-20T05:48:48.063Z,16.33
2023-10-20T05:51:16.611Z,16.57
2023-10-20T05:53:44.926Z,16.93
2023-10-20T05:56:42.171Z,17.22
2023-10-20T05:59:10.638Z,17.45
2023-10-20T06:01:39.341Z,17.71
2023-10-20T06:04:09.704Z,17.99
2023-10-20T06:06:38.318Z,18.19
2023-10-20T06:09:10.798Z,18.38
2023-10-20T06:11:40.445Z,18.72
2023-10-20T06:14:14.662Z,19.07
2023-10-20T06:16:43.917Z,19.40
2023-10-20T06:19:12.197Z,19.67
2023-10-20T06:21:46.264Z,19.89
2023-10-20T06:24:15.613Z,20.15
2023-10-20T06:26:45.491Z,20.33
2023-10-20T06:29:23.004Z,20.39
2023-10-20T06:32:21.031Z,20.48
2023-10-20T06:34:50.294Z,20.38
2023-10-20T06:37:43.150Z,20.29
2023-10-20T06:40:22.076Z,20.21
2023-10-20T06:42:50.537Z,20.27
2023-10-20T06:45:18.814Z,20.35
2023-10-20T06:47:48.295Z,20.52
2023-10-20T06:50:16.971Z,20.84
2023-10-20T06:52:45.083Z,21.02
2023-10-20T06:57:46.150Z,21.49
2023-10-20T07:00:18.563Z,21.63
2023-10-20T07:02:48.072Z,21.86
2023-10-20T07:05:16.603Z,22.10
2023-10-20T07:07:45.577Z,22.10
2023-10-20T07:10:14.036Z,22.12
2023-10-20T07:12:42.338Z,22.27
2023-10-20T07:15:11.840Z,22.53
2023-10-20T07:17:40.550Z,23.00
2023-10-20T07:20:10.001Z,23.33
2023-10-20T07:22:39.739Z,23.67
2023-10-20T07:25:09.498Z,24.04
2023-10-20T07:27:37.733Z,24.32
2023-10-20T07:30:08.004Z,24.55
2023-10-20T07:32:36.570Z,24.89
2023-10-20T07:35:05.930Z,25.23
2023-10-20T07:37:35.189Z,25.30
2023-10-20T07:40:06.252Z,25.48
2023-10-20T07:42:35.076Z,25.58
2023-10-20T07:45:03.443Z,25.77
2023-10-20T07:47:31.802Z,25.91
2023-10-20T07:50:00.913Z,25.89
2023-10-20T07:52:30.814Z,26.06
2023-10-20T07:54:59.109Z,26.24
2023-10-20T07:57:27.214Z,26.53
2023-10-20T07:59:55.784Z,26.77
2023-10-20T08:02:25.228Z,26.85
2023-10-20T09:20:12.244Z,30.56
2023-10-20T09:22:39.404Z,30.49
2023-10-20T09:25:10.663Z,30.41
2023-10-20T09:27:41.215Z,30.30
2023-10-20T09:30:10.481Z,30.32
2023-10-20T09:32:38.984Z,30.34
2023-10-20T09:35:07.045Z,30.44
2023-10-20T09:37:39.088Z,30.21
2023-10-20T09:40:10.442Z,30.22
2023-10-20T09:42:55.521Z,30.21
2023-10-20T09:45:32.903Z,30.28
2023-10-20T09:48:14.322Z,30.17
2023-10-20T09:50:42.680Z,30.22
2023-10-20T09:53:09.916Z,30.02
2023-10-20T09:55:37.577Z,29.94
2023-10-20T09:58:04.826Z,29.94
2023-10-20T10:00:34.587Z,30.00
2023-10-20T10:03:01.837Z,29.96
2023-10-20T10:05:30.724Z,29.95
2023-10-20T10:08:07.555Z,29.94
2023-10-20T10:10:36.582Z,29.74
2023-10-20T10:13:07.795Z,29.44
2023-10-20T10:15:46.005Z,29.56
2023-10-20T10:18:16.496Z,29.55
2023-10-20T10:20:47.287Z,29.46
2023-10-20T10:23:18.040Z,29.72
2023-10-20T10:25:50.472Z,29.91
2023-10-20T10:28:20.393Z,30.03
2023-10-20T10:30:52.922Z,30.07
2023-10-20T10:33:25.693Z,30.21
2023-10-20T10:36:10.756Z,30.25
2023-10-20T10:38:44.037Z,29.95
2023-10-20T10:41:11.593Z,29.84
2023-10-20T10:43:39.226Z,29.73
2023-10-20T10:46:07.412Z,29.88
2023-10-20T10:48:36.029Z,29.92
2023-10-20T10:51:06.102Z,29.97
2023-10-20T10:53:32.988Z,29.88
2023-10-20T10:56:00.200Z,29.63
2023-10-20T10:58:27.323Z,29.36
2023-10-20T11:00:55.494Z,29.29
2023-10-20T11:03:26.086Z,29.24
2023-10-20T11:05:54.864Z,29.28
2023-10-20T11:08:22.033Z,29.46
2023-10-20T11:10:49.852Z,29.46
2023-10-20T11:13:17.764Z,29.41
2023-10-20T11:15:50.302Z,29.45
2023-10-20T11:18:17.319Z,29.65
2023-10-20T11:20:48.444Z,29.66
2023-10-20T11:23:20.165Z,29.58
2023-10-20T11:25:49.461Z,29.28
2023-10-20T11:28:17.520Z,29.15
2023-10-20T11:30:46.007Z,28.97
2023-10-20T11:33:16.446Z,28.79
2023-10-20T11:35:44.933Z,28.18
2023-10-20T11:38:16.915Z,27.75
2023-10-20T11:40:48.316Z,27.39
2023-10-20T11:43:15.464Z,27.06
2023-10-20T11:45:42.304Z,26.65
2023-10-20T11:48:09.859Z,26.34
2023-10-20T11:50:37.491Z,26.04
2023-10-20T11:53:05.014Z,25.67
2023-10-20T11:55:32.954Z,25.28
2023-10-20T11:58:01.439Z,24.98
2023-10-20T12:00:28.898Z,24.71
2023-10-20T12:02:56.342Z,24.46
2023-10-20T12:05:23.358Z,24.28
2023-10-20T12:07:51.472Z,24.11
2023-10-20T12:10:18.672Z,23.92
2023-10-20T12:12:45.565Z,23.76
2023-10-20T12:15:12.515Z,23.55
2023-10-20T12:17:41.799Z,23.43
2023-10-20T12:20:10.446Z,23.32
2023-10-20T12:22:37.354Z,23.30
2023-10-20T12:25:05.904Z,23.43
2023-10-20T12:27:32.770Z,23.62
2023-10-20T12:29:59.779Z,23.84
2023-10-20T12:32:27.957Z,24.11
2023-10-20T12:34:55.668Z,24.20
2023-10-20T12:37:22.599Z,24.27
2023-10-20T12:39:50.056Z,24.25
2023-10-20T12:42:16.898Z,24.20
2023-10-20T12:44:44.069Z,24.10
2023-10-20T12:47:11.875Z,23.94
2023-10-20T12:49:38.624Z,23.69
2023-10-20T12:52:05.598Z,23.60
2023-10-20T12:54:32.692Z,23.58
2023-10-20T12:57:01.500Z,23.53
2023-10-20T12:59:29.324Z,23.61
2023-10-20T13:01:56.374Z,23.82
2023-10-20T13:04:23.797Z,23.99
2023-10-20T13:07:00.077Z,24.00
2023-10-20T13:09:28.926Z,23.91
2023-10-20T13:11:59.670Z,23.78
2023-10-20T13:14:27.607Z,23.65
2023-10-20T13:16:54.618Z,23.48
2023-10-20T13:19:21.538Z,23.34
2023-10-20T13:21:48.326Z,23.37
2023-10-20T13:24:15.191Z,23.56
2023-10-20T13:26:42.188Z,24.01
2023-10-20T13:29:09.837Z,24.50
2023-10-20T13:31:36.789Z,24.87
2023-10-20T13:34:06.072Z,25.10
2023-10-20T13:36:35.491Z,25.47
2023-10-20T13:39:02.856Z,25.65
2023-10-20T13:41:29.900Z,25.61
2023-10-20T13:43:57.141Z,25.33
2023-10-20T13:46:23.926Z,24.98
2023-10-20T13:48:50.923Z,24.64
2023-10-20T13:51:17.965Z,24.28
2023-10-20T13:53:44.827Z,24.05
2023-10-20T13:56:12.161Z,23.77
2023-10-20T13:58:40.039Z,23.53
2023-10-20T14:01:07.079Z,23.33
2023-10-20T14:03:34.161Z,23.09
2023-10-20T14:06:01.542Z,22.89
2023-10-20T14:08:29.444Z,22.66
2023-10-20T14:11:00.700Z,22.46
2023-10-20T14:13:27.755Z,22.29
2023-10-20T14:15:54.673Z,22.11
2023-10-20T14:18:22.622Z,21.92
2023-10-20T14:20:50.100Z,21.80
2023-10-20T14:23:20.347Z,21.79
2023-10-20T14:25:56.571Z,21.78
2023-10-20T14:28:24.679Z,21.74
2023-10-20T14:30:55.105Z,21.74
2023-10-20T14:33:23.460Z,21.77
2023-10-20T14:35:50.775Z,21.70
2023-10-20T14:38:17.880Z,21.57
2023-10-20T14:40:45.742Z,21.45
2023-10-20T14:43:12.687Z,21.40
2023-10-20T14:45:39.528Z,21.37
2023-10-20T14:48:07.050Z,21.27
2023-10-20T14:50:36.525Z,21.14
2023-10-20T14:53:03.801Z,20.99
2023-10-20T14:55:34.990Z,20.88
2023-10-20T14:58:01.840Z,20.81
2023-10-20T15:00:29.494Z,20.70
2023-10-20T15:02:56.475Z,20.56
2023-10-20T15:05:23.753Z,20.46
2023-10-20T15:07:50.573Z,20.38
2023-10-20T15:10:17.890Z,20.35
2023-10-20T15:12:46.553Z,20.31
2023-10-20T15:15:13.453Z,20.26
2023-10-20T15:17:40.539Z,20.17
2023-10-20T15:20:09.364Z,20.04
2023-10-20T15:22:36.192Z,19.96
2023-10-20T15:25:05.191Z,19.87
2023-10-20T15:27:32.337Z,19.81
2023-10-20T15:29:59.279Z,19.79
2023-10-20T15:32:26.418Z,19.72
2023-10-20T15:34:54.613Z,19.66
2023-10-20T15:37:23.247Z,19.59
2023-10-20T15:39:55.333Z,19.53
2023-10-20T15:42:31.019Z,19.43
2023-10-20T15:44:58.195Z,19.41
2023-10-20T15:47:25.125Z,19.40
2023-10-20T15:49:52.563Z,19.34
2023-10-20T15:52:19.406Z,19.29
2023-10-20T15:54:46.456Z,19.24
2023-10-20T15:57:13.511Z,19.21
2023-10-20T15:59:40.634Z,19.19
2023-10-20T16:02:07.694Z,19.19
2023-10-20T16:04:34.590Z,19.13
2023-10-20T16:07:01.599Z,19.06
2023-10-20T16:09:29.143Z,19.00
2023-10-20T16:11:56.003Z,18.94
2023-10-20T16:14:22.933Z,18.89
2023-10-20T16:16:49.974Z,18.88
2023-10-20T16:19:16.929Z,18.85
2023-10-20T16:21:43.867Z,18.85
2023-10-20T16:24:13.992Z,18.80
2023-10-20T16:26:40.892Z,18.76
2023-10-20T16:29:08.081Z,18.73
2023-10-20T16:31:34.955Z,18.76
2023-10-20T16:34:02.073Z,18.73
2023-10-20T16:36:30.143Z,18.69
2023-10-20T16:38:59.893Z,18.58
2023-10-20T16:41:27.028Z,18.48
2023-10-20T16:43:53.851Z,18.42
2023-10-20T16:46:20.572Z,18.39
2023-10-20T16:48:49.299Z,18.36
2023-10-20T16:51:18.872Z,18.36
2023-10-20T16:53:49.834Z,18.34
2023-10-20T16:56:16.716Z,18.31
2023-10-20T16:58:43.794Z,18.28
2023-10-20T17:01:10.905Z,18.24
2023-10-20T17:03:38.305Z,18.17
2023-10-20T17:06:06.345Z,18.10
2023-10-20T17:08:34.063Z,18.05
2023-10-20T17:11:04.994Z,18.02
2023-10-20T17:13:34.992Z,17.94
2023-10-20T17:16:08.694Z,17.88
2023-10-20T17:18:36.166Z,17.82
2023-10-20T17:21:05.353Z,17.79
2023-10-20T17:23:33.414Z,17.74
2023-10-20T17:26:01.908Z,17.67
2023-10-20T17:28:31.240Z,17.64
2023-10-20T17:31:03.206Z,17.59
2023-10-20T17:33:30.704Z,17.53
2023-10-20T17:36:05.908Z,17.48
2023-10-20T17:38:33.711Z,17.45
2023-10-20T17:41:05.080Z,17.43
2023-10-20T17:43:32.915Z,17.43
2023-10-20T17:46:11.223Z,17.43
2023-10-20T17:48:38.484Z,17.43
2023-10-20T17:51:05.595Z,17.42
2023-10-20T17:53:35.214Z,17.42
2023-10-20T17:56:06.410Z,17.44
2023-10-20T17:58:33.917Z,17.43
2023-10-20T18:01:05.002Z,17.40
2023-10-20T18:03:32.779Z,17.40
2023-10-20T18:06:26.880Z,17.40
2023-10-20T18:08:54.259Z,17.36
2023-10-20T18:11:21.731Z,17.32
2023-10-20T18:13:51.522Z,17.28
2023-10-20T18:16:21.665Z,17.23
2023-10-20T18:18:51.122Z,17.21
2023-10-20T18:21:19.994Z,17.24
2023-10-20T18:23:54.354Z,17.33
2023-10-20T18:26:24.542Z,17.44
2023-10-20T18:28:51.265Z,17.64
2023-10-20T18:31:23.264Z,17.84
2023-10-20T18:33:54.365Z,18.11
2023-10-20T18:36:21.221Z,18.34
2023-10-20T18:38:48.508Z,18.50
2023-10-20T18:41:20.382Z,18.62
2023-10-20T18:43:47.787Z,18.69
2023-10-20T18:46:14.967Z,18.73
2023-10-20T18:48:42.324Z,18.73
2023-10-20T18:51:12.009Z,18.70
2023-10-20T18:53:41.540Z,18.74
2023-10-20T18:56:09.405Z,18.80
2023-10-20T18:58:38.811Z,18.84
2023-10-20T19:01:07.815Z,18.85
2023-10-20T19:03:35.255Z,18.85
2023-10-20T19:06:09.024Z,18.87
2023-10-20T19:08:39.331Z,18.88
2023-10-20T19:11:11.016Z,18.91
2023-10-20T19:13:40.668Z,18.95
2023-10-20T19:16:07.587Z,18.96
2023-10-20T19:18:34.885Z,18.97
2023-10-20T19:21:04.836Z,18.98
2023-10-20T19:23:31.979Z,19.00
2023-10-20T19:26:07.177Z,19.03
2023-10-20T19:28:34.682Z,19.07
2023-10-20T19:31:04.038Z,19.11
2023-10-20T19:33:34.705Z,19.15
2023-10-20T19:36:06.817Z,19.22
2023-10-20T19:38:34.365Z,19.28
2023-10-20T19:41:04.473Z,19.35
2023-10-20T19:43:31.416Z,19.40
2023-10-20T19:46:00.907Z,19.46
2023-10-20T19:48:28.233Z,19.51
2023-10-20T19:50:57.801Z,19.54
2023-10-20T19:53:24.710Z,19.56
2023-10-20T19:55:51.865Z,19.58
2023-10-20T19:58:18.847Z,19.58
2023-10-20T20:00:45.670Z,19.59
2023-10-20T20:03:13.373Z,19.61
2023-10-20T20:05:40.482Z,19.61
2023-10-20T20:08:08.194Z,19.59
2023-10-20T20:10:35.179Z,19.57
2023-10-20T20:13:02.320Z,19.54
2023-10-20T20:15:29.268Z,19.52
2023-10-20T20:17:58.013Z,19.49
2023-10-20T20:20:26.138Z,19.46
2023-10-20T20:22:53.013Z,19.46
2023-10-20T20:25:20.013Z,19.44
2023-10-20T20:27:46.859Z,19.44
2023-10-20T20:30:14.479Z,19.42
2023-10-20T20:32:41.445Z,19.37
2023-10-20T20:35:09.582Z,19.32
2023-10-20T20:37:36.583Z,19.28
2023-10-20T20:40:04.490Z,19.24
2023-10-20T20:42:31.801Z,19.23
2023-10-20T20:44:58.855Z,19.25
2023-10-20T20:47:26.242Z,19.26
2023-10-20T20:49:53.355Z,19.27
2023-10-20T20:52:20.301Z,19.28
2023-10-20T20:54:47.241Z,19.29
2023-10-20T20:57:14.218Z,19.32
2023-10-20T20:59:41.088Z,19.36
2023-10-20T21:02:08.081Z,19.40
2023-10-20T21:04:35.004Z,19.41
2023-10-20T21:07:02.078Z,19.41
2023-10-20T21:09:29.121Z,19.39
2023-10-20T21:11:56.017Z,19.37
2023-10-20T21:14:23.003Z,19.33
2023-10-20T21:16:49.874Z,19.27
2023-10-20T21:19:17.926Z,19.22
2023-10-20T21:21:45.263Z,19.17
2023-10-20T21:24:12.265Z,19.14
2023-10-20T21:26:40.596Z,19.12
2023-10-20T21:29:08.243Z,19.10
2023-10-20T21:31:35.386Z,19.08
2023-10-20T21:34:02.335Z,19.05
2023-10-20T21:36:29.373Z,19.02
2023-10-20T21:38:56.474Z,18.99
2023-10-20T21:41:23.778Z,18.93
2023-10-20T21:43:50.548Z,18.86
2023-10-20T21:46:17.480Z,18.77
2023-10-20T21:48:44.633Z,18.66
2023-10-20T21:51:11.715Z,18.54
2023-10-20T21:53:39.949Z,18.41
2023-10-20T21:56:09.550Z,18.32
2023-10-20T21:58:39.798Z,18.24
2023-10-20T22:01:09.374Z,18.17
2023-10-20T22:03:38.616Z,18.13
2023-10-20T22:06:07.568Z,18.11
2023-10-20T22:08:35.038Z,18.09
2023-10-20T22:11:02.188Z,18.06
2023-10-20T22:13:29.006Z,18.01
2023-10-20T22:15:56.363Z,17.94
2023-10-20T22:18:23.560Z,17.86
2023-10-20T22:20:50.844Z,17.77
2023-10-20T22:23:22.935Z,17.69
2023-10-20T22:25:50.290Z,17.59
2023-10-20T22:28:17.262Z,17.53
2023-10-20T22:30:44.252Z,17.48
2023-10-20T22:33:11.091Z,17.47
2023-10-20T22:35:38.212Z,17.45
2023-10-20T22:38:05.838Z,17.40
2023-10-20T22:40:33.700Z,17.35
2023-10-20T22:43:00.920Z,17.31
2023-10-20T22:45:27.789Z,17.29
2023-10-20T22:47:54.503Z,17.29
2023-10-20T22:50:21.631Z,17.27
2023-10-20T22:52:48.750Z,17.25
2023-10-20T22:55:15.990Z,17.23
2023-10-20T22:57:42.932Z,17.20
2023-10-20T23:00:11.192Z,17.15
2023-10-20T23:02:39.228Z,17.12
2023-10-20T23:05:10.347Z,17.08
2023-10-20T23:07:37.492Z,17.06
2023-10-20T23:10:05.306Z,17.08
2023-10-20T23:12:33.489Z,17.11
2023-10-20T23:15:00.587Z,17.14
2023-10-20T23:17:28.077Z,17.20
2023-10-20T23:19:55.384Z,17.27
2023-10-20T23:22:22.222Z,17.31
2023-10-20T23:24:49.177Z,17.35
2023-10-20T23:27:16.255Z,17.40
2023-10-20T23:29:43.306Z,17.45
2023-10-20T23:32:10.533Z,17.56
2023-10-20T23:34:37.559Z,17.71
2023-10-20T23:37:05.333Z,17.83
2023-10-20T23:39:33.622Z,17.94
2023-10-20T23:42:01.193Z,18.05
2023-10-20T23:44:30.262Z,18.15
2023-10-20T23:46:57.925Z,18.23
2023-10-20T23:49:24.993Z,18.25
2023-10-20T23:51:52.438Z,18.23
2023-10-20T23:54:19.433Z,18.19
2023-10-20T23:56:46.472Z,18.15
2023-10-20T23:59:13.577Z,18.12
